• Join FlightAware (Why Join?)
  • Login
  • US Flag 
02:57PM EDT


 

Airport Tracker/Info


-or-


 

Live Flight TrackerFlight Track Log ✈ N509QS ✈ 14-Jul-2013 ✈ KPSF - KHPN

Flight Track Log - Related Links

Times and Time Zones

All times are in EDT time to prevent confusion due to time zone crossing. See the N509QS flight status page for this flight to view local times or setup timezone preferences in your user account.

Time Position Orientation Groundspeed Altitude Reporting Facility
EDT Latitude Longitude Course Direction KTS MPH feet Rate Location/Type
05:21PM 42.4239 -73.3344 298° West 196 226 2,600  Level Boston Center
05:23PM 42.4689 -73.4506 298° West 241 277 7,100 2,700 Climbing Boston Center
05:24PM 42.4328 -73.5314 239° Southwest 220 253 9,500 2,220 Climbing Boston Center
05:25PM 42.3756 -73.6119 226° Southwest 266 306 11,600 1,200 Climbing Boston Center
05:26PM 42.3100 -73.7147 229° Southwest 337 388 12,000 240 Climbing Boston Center
05:27PM 42.2400 -73.8031 223° Southwest 382 440 12,100  Climbing Boston Center
05:28PM 42.1392 -73.8764 208° Southwest 387 445 12,000 -60 Descending Boston Center
05:29PM 42.0425 -73.9386 206° Southwest 392 451 12,000 -180 Level Boston Center
05:30PM 41.9467 -73.9389 180° South 352 405 11,700 -720 Descending Boston Center
05:31PM 41.8528 -73.9311 176° South 342 394 10,600 -1,140 Descending Boston Center
05:32PM 41.7697 -73.9208 175° South 323 372 9,500 -1,320 Descending Boston Center
05:33PM 41.6844 -73.9106 175° South 313 360 8,000 -1,560 Descending Boston Center
05:34PM 41.6031 -73.9003 175° South 300 345 6,400 -1,020 Descending Boston Center
05:35PM 41.5333 -73.8833 170° South 247 284 6,000 -360 Descending New York TRACON
05:36PM 41.4667 -73.8833 180° South 274 315 5,700 -600 Descending New York TRACON
05:37PM 41.3833 -73.8333 156° South 291 335 4,800 -1,200 Descending New York TRACON
05:38PM 41.3167 -73.7833 151° Southeast 280 322 3,400 -1,140 Descending New York TRACON
05:39PM 41.2667 -73.7167 135° Southeast 264 304 2,600 -720 Descending New York TRACON
05:40PM 41.2000 -73.6833 159° South 230 265 2,000 -300 Descending New York TRACON
05:41PM 41.1500 -73.6333 143° Southeast 216 249 2,000  Level New York TRACON
05:42PM 41.1167 -73.5833 131° Southeast 206 237 2,000  Level New York TRACON
05:43PM 41.0667 -73.5500 153° Southeast 191 220 2,000  Level New York TRACON
05:44PM 41.0167 -73.5000 143° Southeast 192 221 2,000  Level New York TRACON
05:45PM 40.9833 -73.5333 217° Southwest 185 213 2,000  Level New York TRACON
05:46PM 40.9667 -73.6000 252° West 179 206 2,000 -60 Level New York TRACON
05:47PM 40.9833 -73.6500 294° West 182 209 1,900 -480 Descending New York TRACON
05:48PM 41.0333 -73.6833 333° Northwest 158 182 1,100 -840 Descending New York TRACON
05:50PM 41.0667 -73.7000 288° West  Level FlightAware Approximate
05:57PM 41.0669 -73.7076 288° West  Level Estimated
05:58PM 41.0667 -73.7000 288° West  Level FlightAware Approximate